createdAt,value
2017-09-11T00:00:12.111Z,0
2017-09-11T00:01:12.090Z,0
2017-09-11T00:02:12.379Z,0
2017-09-11T00:03:12.040Z,0
2017-09-11T00:04:12.336Z,0
2017-09-11T00:05:11.996Z,0
2017-09-11T00:06:11.995Z,0
2017-09-11T00:07:12.289Z,0
2017-09-11T00:08:11.959Z,0
2017-09-11T00:09:11.937Z,0
2017-09-11T00:10:12.219Z,0
2017-09-11T00:11:12.209Z,0
2017-09-11T00:12:12.220Z,0
2017-09-11T00:13:11.901Z,0
2017-09-11T00:14:12.188Z,0
2017-09-11T00:15:12.150Z,0
2017-09-11T00:16:12.126Z,0
2017-09-11T00:17:12.110Z,0
2017-09-11T00:18:12.090Z,0
2017-09-11T00:19:11.761Z,0
2017-09-11T00:20:11.430Z,0
2017-09-11T00:21:12.057Z,0
2017-09-11T00:22:12.023Z,0
2017-09-11T00:23:11.990Z,0
2017-09-11T00:24:12.001Z,0
2017-09-11T00:25:11.969Z,0
2017-09-11T00:26:11.938Z,0
2017-09-11T00:27:11.940Z,0
2017-09-11T00:28:11.921Z,0
2017-09-11T00:29:11.590Z,0
2017-09-11T00:30:11.265Z,0
2017-09-11T00:31:11.539Z,0
2017-09-11T00:32:11.858Z,0
2017-09-11T00:33:11.559Z,0
2017-09-11T00:34:11.474Z,0
2017-09-11T00:35:11.169Z,0
2017-09-11T00:36:11.133Z,0
2017-09-11T00:37:11.432Z,0
2017-09-11T00:38:11.397Z,0
2017-09-11T00:39:11.141Z,0
2017-09-11T00:40:11.072Z,0
2017-09-11T00:41:11.660Z,0
2017-09-11T00:42:11.339Z,0
2017-09-11T00:43:11.634Z,0
2017-09-11T00:44:11.622Z,0
2017-09-11T00:45:11.589Z,0
2017-09-11T00:46:11.582Z,0
2017-09-11T00:47:11.571Z,0
2017-09-11T00:48:11.560Z,0
2017-09-11T00:49:11.208Z,0
2017-09-11T00:50:11.512Z,0
2017-09-11T00:51:11.238Z,0
2017-09-11T00:52:11.163Z,0
2017-09-11T00:53:11.172Z,0
2017-09-11T00:54:11.450Z,0
2017-09-11T00:55:11.413Z,0
2017-09-11T00:56:11.089Z,0
2017-09-11T00:57:11.388Z,0
2017-09-11T00:58:11.050Z,0
2017-09-11T00:59:11.040Z,0
2017-09-11T01:00:11.013Z,0
2017-09-11T01:01:11.007Z,0
2017-09-11T01:02:11.105Z,0
2017-09-11T01:03:10.344Z,0
2017-09-11T01:04:10.646Z,0
2017-09-11T01:05:10.607Z,0
2017-09-11T01:06:10.919Z,0
2017-09-11T01:07:11.200Z,0
2017-09-11T01:08:10.563Z,0
2017-09-11T01:09:11.180Z,0
2017-09-11T01:10:10.539Z,0
2017-09-11T01:11:10.831Z,0
2017-09-11T01:12:10.489Z,0
2017-09-11T01:13:10.469Z,0
2017-09-11T01:14:10.469Z,0
2017-09-11T01:15:10.450Z,0
2017-09-11T01:16:10.739Z,0
2017-09-11T01:17:11.019Z,0
2017-09-11T01:18:10.693Z,0
2017-09-11T01:19:10.369Z,0
2017-09-11T01:20:10.960Z,0
2017-09-11T01:21:10.640Z,0
2017-09-11T01:22:10.329Z,0
2017-09-11T01:23:10.600Z,0
2017-09-11T01:24:10.906Z,0
2017-09-11T01:25:10.571Z,0
2017-09-11T01:26:10.861Z,0
2017-09-11T01:27:10.840Z,0
2017-09-11T01:28:10.509Z,0
2017-09-11T01:29:10.179Z,0
2017-09-11T01:30:10.479Z,0
2017-09-11T01:31:10.763Z,0
2017-09-11T01:32:10.766Z,0
2017-09-11T01:33:10.109Z,0
2017-09-11T01:34:10.708Z,0
2017-09-11T01:35:10.079Z,0
2017-09-11T01:36:10.100Z,0
2017-09-11T01:37:10.662Z,0
2017-09-11T01:38:10.352Z,0
2017-09-11T01:39:10.630Z,0
2017-09-11T01:40:09.766Z,0
2017-09-11T01:41:10.289Z,0
2017-09-11T01:42:10.005Z,0
2017-09-11T01:43:10.545Z,0
2017-09-11T01:44:10.542Z,0
2017-09-11T01:45:10.529Z,0
2017-09-11T01:46:09.926Z,0
2017-09-11T01:47:10.481Z,0
2017-09-11T01:48:10.209Z,0
2017-09-11T01:49:10.139Z,0
2017-09-11T01:50:10.431Z,0
2017-09-11T01:51:10.110Z,0
2017-09-11T01:52:10.400Z,0
2017-09-11T01:53:10.379Z,0
2017-09-11T01:54:10.039Z,0
2017-09-11T01:55:10.352Z,0
2017-09-11T01:56:10.008Z,0
2017-09-11T01:57:10.319Z,0
2017-09-11T01:58:10.301Z,0
2017-09-11T01:59:10.268Z,0
2017-09-11T02:00:09.740Z,0
2017-09-11T02:01:09.969Z,0
2017-09-11T02:02:09.949Z,0
2017-09-11T02:03:09.989Z,0
2017-09-11T02:04:09.879Z,0
2017-09-11T02:05:09.932Z,0
2017-09-11T02:06:09.832Z,0
2017-09-11T02:07:10.119Z,0
2017-09-11T02:08:10.109Z,0
2017-09-11T02:09:09.790Z,0
2017-09-11T02:10:10.082Z,0
2017-09-11T02:11:09.819Z,0
2017-09-11T02:12:09.760Z,0
2017-09-11T02:13:09.403Z,0
2017-09-11T02:14:09.790Z,0
2017-09-11T02:15:09.690Z,0
2017-09-11T02:16:09.661Z,0
2017-09-11T02:17:09.949Z,0
2017-09-11T02:18:09.630Z,0
2017-09-11T02:19:09.934Z,0
2017-09-11T02:20:09.899Z,0
2017-09-11T02:21:09.890Z,0
2017-09-11T02:22:09.859Z,0
2017-09-11T02:23:09.540Z,0
2017-09-11T02:24:09.819Z,0
2017-09-11T02:25:09.832Z,0
2017-09-11T02:26:09.539Z,0
2017-09-11T02:27:09.789Z,0
2017-09-11T02:28:09.743Z,0
2017-09-11T02:29:09.415Z,0
2017-09-11T02:30:09.412Z,0
2017-09-11T02:31:09.767Z,0
2017-09-11T02:32:09.480Z,0
2017-09-11T02:33:09.685Z,0
2017-09-11T02:34:09.023Z,0
2017-09-11T02:35:09.638Z,0
2017-09-11T02:36:09.729Z,0
2017-09-11T02:37:09.588Z,0
2017-09-11T02:38:09.299Z,0
2017-09-11T02:39:09.569Z,0
2017-09-11T02:40:09.654Z,0
2017-09-11T02:41:09.220Z,0
2017-09-11T02:42:09.511Z,0
2017-09-11T02:43:09.189Z,0
2017-09-11T02:44:09.480Z,0
2017-09-11T02:45:09.139Z,0
2017-09-11T02:46:09.437Z,0
2017-09-11T02:47:09.089Z,0
2017-09-11T02:48:08.779Z,0
2017-09-11T02:49:09.060Z,0
2017-09-11T02:50:08.736Z,0
2017-09-11T02:51:09.037Z,0
2017-09-11T02:52:08.711Z,0
2017-09-11T02:53:09.307Z,0
2017-09-11T02:54:09.001Z,0
2017-09-11T02:55:08.959Z,0
2017-09-11T02:56:08.627Z,0
2017-09-11T02:57:08.923Z,0
2017-09-11T02:58:09.225Z,0
2017-09-11T02:59:08.902Z,0
2017-09-11T03:00:09.190Z,0
2017-09-11T03:01:08.860Z,0
2017-09-11T03:02:08.862Z,0
2017-09-11T03:03:08.506Z,0
2017-09-11T03:04:08.544Z,0
2017-09-11T03:05:08.478Z,0
2017-09-11T03:06:08.847Z,0
2017-09-11T03:07:08.739Z,0
2017-09-11T03:08:09.029Z,0
2017-09-11T03:09:09.042Z,0
2017-09-11T03:10:08.703Z,0
2017-09-11T03:11:08.659Z,0
2017-09-11T03:12:08.979Z,0
2017-09-11T03:13:08.010Z,0
2017-09-11T03:14:08.318Z,0
2017-09-11T03:15:08.899Z,0
2017-09-11T03:16:09.004Z,0
2017-09-11T03:17:08.876Z,0
2017-09-11T03:18:08.602Z,0
2017-09-11T03:19:08.206Z,0
2017-09-11T03:20:08.830Z,0
2017-09-11T03:21:08.813Z,0
2017-09-11T03:22:08.601Z,0
2017-09-11T03:23:08.493Z,0
2017-09-11T03:24:08.542Z,0
2017-09-11T03:25:08.437Z,0
2017-09-11T03:26:08.415Z,0
2017-09-11T03:27:08.379Z,0
2017-09-11T03:28:08.368Z,0
2017-09-11T03:29:08.662Z,0
2017-09-11T03:30:08.728Z,0
2017-09-11T03:31:08.710Z,0
2017-09-11T03:32:08.296Z,0
2017-09-11T03:33:08.692Z,0
2017-09-11T03:34:08.675Z,0
2017-09-11T03:35:08.622Z,0
2017-09-11T03:36:07.984Z,0
2017-09-11T03:37:08.533Z,0
2017-09-11T03:38:08.597Z,0
2017-09-11T03:39:08.261Z,0
2017-09-11T03:40:07.889Z,0
2017-09-11T03:41:08.180Z,0
2017-09-11T03:42:08.508Z,0
2017-09-11T03:43:08.170Z,0
2017-09-11T03:44:07.779Z,0
2017-09-11T03:45:08.147Z,0
2017-09-11T03:46:08.468Z,0
2017-09-11T03:47:08.442Z,0
2017-09-11T03:48:07.379Z,0
2017-09-11T03:49:08.034Z,0
2017-09-11T03:50:07.671Z,0
2017-09-11T03:51:07.960Z,0
2017-09-11T03:52:07.955Z,0
2017-09-11T03:53:08.227Z,0
2017-09-11T03:54:07.582Z,0
2017-09-11T03:55:07.261Z,0
2017-09-11T03:56:07.860Z,0
2017-09-11T03:57:07.844Z,0
2017-09-11T03:58:07.839Z,0
2017-09-11T03:59:07.495Z,0
2017-09-11T04:00:08.092Z,0
2017-09-11T04:01:07.800Z,0
2017-09-11T04:02:07.841Z,0
2017-09-11T04:03:07.420Z,0
2017-09-11T04:04:07.419Z,0
2017-09-11T04:05:07.399Z,0
2017-09-11T04:06:07.990Z,0
2017-09-11T04:07:07.388Z,0
2017-09-11T04:08:07.329Z,0
2017-09-11T04:09:07.931Z,0
2017-09-11T04:10:07.306Z,0
2017-09-11T04:11:07.589Z,0
2017-09-11T04:12:07.578Z,0
2017-09-11T04:13:07.868Z,0
2017-09-11T04:14:07.227Z,0
2017-09-11T04:15:07.550Z,0
2017-09-11T04:16:07.499Z,0
2017-09-11T04:17:07.486Z,0
2017-09-11T04:18:07.879Z,0
2017-09-11T04:19:07.137Z,0
2017-09-11T04:20:07.130Z,0
2017-09-11T04:21:07.732Z,0
2017-09-11T04:22:07.389Z,0
2017-09-11T04:23:07.378Z,0
2017-09-11T04:24:07.368Z,0
2017-09-11T04:25:07.028Z,0
2017-09-11T04:26:07.031Z,0
2017-09-11T04:27:07.303Z,0
2017-09-11T04:28:07.612Z,0
2017-09-11T04:29:07.633Z,0
2017-09-11T04:30:07.266Z,0
2017-09-11T04:31:07.230Z,0
2017-09-11T04:32:07.538Z,0
2017-09-11T04:33:07.539Z,0
2017-09-11T04:34:07.189Z,0
2017-09-11T04:35:07.545Z,0
2017-09-11T04:36:07.470Z,0
2017-09-11T04:37:07.492Z,0
2017-09-11T04:38:07.114Z,4
2017-09-11T04:39:07.120Z,4
2017-09-11T04:40:07.438Z,4
2017-09-11T04:41:07.387Z,0
2017-09-11T04:42:07.365Z,4
2017-09-11T04:43:07.335Z,4
2017-09-11T04:44:07.303Z,4
2017-09-11T04:45:06.983Z,4
2017-09-11T04:46:06.652Z,8
2017-09-11T04:47:07.340Z,4
2017-09-11T04:48:07.249Z,12
2017-09-11T04:49:07.271Z,12
2017-09-11T04:50:07.208Z,12
2017-09-11T04:51:07.261Z,12
2017-09-11T04:52:07.170Z,12
2017-09-11T04:53:07.160Z,20
2017-09-11T04:54:07.123Z,20
2017-09-11T04:55:07.117Z,24
2017-09-11T04:56:07.117Z,24
2017-09-11T04:57:06.782Z,24
2017-09-11T04:58:07.123Z,20
2017-09-11T04:59:06.730Z,24
2017-09-11T05:00:07.010Z,32
2017-09-11T05:01:06.690Z,36
2017-09-11T05:02:06.685Z,40
2017-09-11T05:03:06.970Z,40
2017-09-11T05:04:06.711Z,48
2017-09-11T05:05:05.998Z,52
2017-09-11T05:06:06.608Z,64
2017-09-11T05:07:06.268Z,68
2017-09-11T05:08:06.618Z,72
2017-09-11T05:09:06.851Z,84
2017-09-11T05:10:06.259Z,92
2017-09-11T05:11:06.839Z,100
2017-09-11T05:12:06.817Z,104
2017-09-11T05:13:06.807Z,128
2017-09-11T05:14:06.147Z,148
2017-09-11T05:15:06.752Z,144
2017-09-11T05:16:06.778Z,148
2017-09-11T05:17:06.770Z,144
2017-09-11T05:18:06.710Z,156
2017-09-11T05:19:06.679Z,184
2017-09-11T05:20:06.089Z,204
2017-09-11T05:21:05.711Z,236
2017-09-11T05:22:06.300Z,288
2017-09-11T05:23:06.596Z,248
2017-09-11T05:24:05.970Z,288
2017-09-11T05:25:05.938Z,328
2017-09-11T05:26:06.239Z,332
2017-09-11T05:27:06.231Z,308
2017-09-11T05:28:05.890Z,260
2017-09-11T05:29:06.196Z,236
2017-09-11T05:30:06.570Z,200
2017-09-11T05:31:06.149Z,168
2017-09-11T05:32:06.548Z,176
2017-09-11T05:33:06.121Z,156
2017-09-11T05:34:05.783Z,168
2017-09-11T05:35:06.382Z,176
2017-09-11T05:36:05.758Z,144
2017-09-11T05:37:06.030Z,152
2017-09-11T05:38:06.014Z,176
2017-09-11T05:39:06.008Z,208
2017-09-11T05:40:06.008Z,244
2017-09-11T05:41:05.971Z,280
2017-09-11T05:42:06.260Z,336
2017-09-11T05:43:06.240Z,352
2017-09-11T05:44:06.260Z,456
2017-09-11T05:45:05.900Z,624
2017-09-11T05:46:05.879Z,936
2017-09-11T05:47:05.876Z,1076
2017-09-11T05:48:06.150Z,1344
2017-09-11T05:49:05.522Z,1660
2017-09-11T05:50:05.794Z,1720
2017-09-11T05:51:06.089Z,1908
2017-09-11T05:52:05.763Z,1524
2017-09-11T05:53:05.742Z,1060
2017-09-11T05:54:05.430Z,944
2017-09-11T05:55:05.700Z,884
2017-09-11T05:56:05.079Z,844
2017-09-11T05:57:05.989Z,740
2017-09-11T05:58:05.654Z,880
2017-09-11T05:59:05.957Z,904
2017-09-11T06:00:05.926Z,976
2017-09-11T06:01:05.596Z,1464
2017-09-11T06:02:05.898Z,1348
2017-09-11T06:03:05.934Z,1332
2017-09-11T06:04:05.559Z,1228
2017-09-11T06:05:05.528Z,1164
2017-09-11T06:06:05.207Z,1240
2017-09-11T06:07:05.189Z,1256
2017-09-11T06:08:05.166Z,1348
2017-09-11T06:09:05.811Z,1352
2017-09-11T06:10:05.739Z,1520
2017-09-11T06:11:05.435Z,1784
2017-09-11T06:12:05.739Z,1652
2017-09-11T06:13:05.079Z,1480
2017-09-11T06:14:05.370Z,1212
2017-09-11T06:15:05.654Z,1208
2017-09-11T06:16:05.650Z,1272
2017-09-11T06:17:05.000Z,964
2017-09-11T06:18:04.674Z,704
2017-09-11T06:19:05.619Z,580
2017-09-11T06:20:04.960Z,468
2017-09-11T06:21:05.262Z,408
2017-09-11T06:22:05.239Z,428
2017-09-11T06:23:05.220Z,488
2017-09-11T06:24:05.202Z,644
2017-09-11T06:25:05.489Z,868
2017-09-11T06:26:04.852Z,1024
2017-09-11T06:27:04.820Z,1132
2017-09-11T06:28:05.139Z,1208
2017-09-11T06:29:05.096Z,1420
2017-09-11T06:30:05.080Z,1628
2017-09-11T06:31:05.089Z,1624
2017-09-11T06:32:04.749Z,1500
2017-09-11T06:33:05.038Z,1348
2017-09-11T06:34:05.029Z,1332
2017-09-11T06:35:04.996Z,1260
2017-09-11T06:36:05.288Z,1160
2017-09-11T06:37:05.249Z,940
2017-09-11T06:38:04.930Z,720
2017-09-11T06:39:04.969Z,564
2017-09-11T06:40:04.899Z,484
2017-09-11T06:41:05.199Z,440
2017-09-11T06:42:04.553Z,404
2017-09-11T06:43:04.852Z,380
2017-09-11T06:44:04.849Z,368
2017-09-11T06:45:05.129Z,384
2017-09-11T06:46:05.109Z,396
2017-09-11T06:47:05.080Z,364
2017-09-11T06:48:04.779Z,344
2017-09-11T06:49:04.449Z,360
2017-09-11T06:50:05.030Z,356
2017-09-11T06:51:05.038Z,364
2017-09-11T06:52:05.010Z,372
2017-09-11T06:53:04.996Z,328
2017-09-11T06:54:04.700Z,300
2017-09-11T06:55:05.017Z,320
2017-09-11T06:56:04.939Z,388
2017-09-11T06:57:04.915Z,392
2017-09-11T06:58:04.898Z,404
2017-09-11T06:59:04.919Z,388
2017-09-11T07:00:04.551Z,408
2017-09-11T07:01:04.832Z,396
2017-09-11T07:02:04.829Z,428
2017-09-11T07:03:04.813Z,364
2017-09-11T07:04:04.811Z,340
2017-09-11T07:05:04.471Z,308
2017-09-11T07:06:04.750Z,260
2017-09-11T07:07:04.750Z,204
2017-09-11T07:08:04.719Z,184
2017-09-11T07:09:04.692Z,220
2017-09-11T07:10:03.748Z,264
2017-09-11T07:11:04.383Z,488
2017-09-11T07:12:04.350Z,976
2017-09-11T07:13:04.308Z,1072
2017-09-11T07:14:04.609Z,1064
2017-09-11T07:15:04.599Z,980
2017-09-11T07:16:04.247Z,1044
2017-09-11T07:17:04.230Z,1676
2017-09-11T07:18:03.954Z,2236
2017-09-11T07:19:04.218Z,3024
2017-09-11T07:20:03.878Z,3676
2017-09-11T07:21:04.484Z,4200
2017-09-11T07:22:04.142Z,4416
2017-09-11T07:23:03.827Z,5520
2017-09-11T07:24:04.429Z,6212
2017-09-11T07:25:04.108Z,6192
2017-09-11T07:26:04.383Z,4848
2017-09-11T07:27:04.392Z,3972
2017-09-11T07:28:04.354Z,4208
2017-09-11T07:29:04.336Z,4208
2017-09-11T07:30:04.332Z,3564
2017-09-11T07:31:03.691Z,3340
2017-09-11T07:32:04.296Z,4228
2017-09-11T07:33:04.274Z,4956
2017-09-11T07:34:03.325Z,5064
2017-09-11T07:35:04.235Z,4752
2017-09-11T07:36:03.604Z,4376
2017-09-11T07:37:03.889Z,4528
2017-09-11T07:38:04.171Z,5464
2017-09-11T07:39:03.529Z,7300
2017-09-11T07:40:03.518Z,7668
2017-09-11T07:41:03.539Z,9988
2017-09-11T07:42:03.489Z,8512
2017-09-11T07:43:04.099Z,4564
2017-09-11T07:44:03.791Z,3852
2017-09-11T07:45:03.756Z,3936
2017-09-11T07:46:04.061Z,3712
2017-09-11T07:47:03.407Z,4048
2017-09-11T07:48:03.728Z,3640
2017-09-11T07:49:03.377Z,2852
2017-09-11T07:50:03.969Z,2792
2017-09-11T07:51:03.952Z,2816
2017-09-11T07:52:03.624Z,2980
2017-09-11T07:53:03.608Z,3108
2017-09-11T07:54:03.908Z,3164
2017-09-11T07:55:03.689Z,3000
2017-09-11T07:56:03.568Z,2984
2017-09-11T07:57:03.859Z,2808
2017-09-11T07:58:03.218Z,2900
2017-09-11T07:59:03.515Z,3036
2017-09-11T08:00:03.192Z,2952
2017-09-11T08:01:03.480Z,3476
2017-09-11T08:02:03.788Z,3856
2017-09-11T08:03:03.792Z,4476
2017-09-11T08:04:03.749Z,5172
2017-09-11T08:05:03.739Z,5112
2017-09-11T08:06:03.419Z,7792
2017-09-11T08:07:03.678Z,7968
2017-09-11T08:08:03.680Z,7368
2017-09-11T08:09:03.672Z,9656
2017-09-11T08:10:02.705Z,11540
2017-09-11T08:11:03.631Z,12328
2017-09-11T08:12:02.993Z,8228
2017-09-11T08:13:03.582Z,10708
2017-09-11T08:14:03.580Z,72288
2017-09-11T08:15:03.581Z,50368
2017-09-11T08:16:03.540Z,9036
2017-09-11T08:17:02.962Z,8004
2017-09-11T08:18:03.198Z,13812
2017-09-11T08:19:02.999Z,60224
2017-09-11T08:20:03.169Z,14696
2017-09-11T08:21:02.669Z,38272
2017-09-11T08:22:03.142Z,16048
2017-09-11T08:23:03.286Z,8032
2017-09-11T08:24:03.124Z,82880
2017-09-11T08:25:03.525Z,69568
2017-09-11T08:26:03.410Z,71808
2017-09-11T08:27:03.551Z,69728
2017-09-11T08:28:03.070Z,60768
2017-09-11T08:29:03.484Z,54912
2017-09-11T08:30:03.349Z,36128
2017-09-11T08:31:03.410Z,10208
2017-09-11T08:32:03.020Z,11964
2017-09-11T08:33:03.080Z,33312
2017-09-11T08:34:03.008Z,71232
2017-09-11T08:35:03.300Z,12364
2017-09-11T08:36:03.023Z,7876
2017-09-11T08:37:02.973Z,6768
2017-09-11T08:38:02.979Z,6704
2017-09-11T08:39:03.020Z,7728
2017-09-11T08:40:02.587Z,7632
2017-09-11T08:41:03.011Z,4912
2017-09-11T08:42:02.583Z,4108
2017-09-11T08:43:03.290Z,5524
2017-09-11T08:44:02.547Z,6700
2017-09-11T08:45:02.849Z,8168
2017-09-11T08:46:02.840Z,4188
2017-09-11T08:47:02.825Z,3928
2017-09-11T08:48:03.121Z,2916
2017-09-11T08:49:02.823Z,2628
2017-09-11T08:50:03.200Z,3556
2017-09-11T08:51:02.826Z,3032
2017-09-11T08:52:02.756Z,8860
2017-09-11T08:53:03.040Z,35104
2017-09-11T08:54:02.713Z,61504
2017-09-11T08:55:02.699Z,3476
2017-09-11T08:56:02.381Z,2976
2017-09-11T08:57:02.364Z,72352
2017-09-11T08:58:02.658Z,80160
2017-09-11T08:59:02.950Z,83296
2017-09-11T09:00:02.347Z,81088
2017-09-11T09:01:02.710Z,39264
2017-09-11T09:02:02.939Z,75808
2017-09-11T09:03:02.662Z,78112
2017-09-11T09:04:02.285Z,72768
2017-09-11T09:05:02.880Z,72640
2017-09-11T09:06:02.910Z,77248
2017-09-11T09:07:02.543Z,12436
2017-09-11T09:08:02.569Z,8356
2017-09-11T09:09:02.670Z,10668
2017-09-11T09:10:02.215Z,76864
2017-09-11T09:11:02.830Z,42720
2017-09-11T09:12:02.811Z,28736
2017-09-11T09:13:02.528Z,74368
2017-09-11T09:14:02.489Z,75104
2017-09-11T09:15:02.790Z,74400
2017-09-11T09:16:02.775Z,76704
2017-09-11T09:17:02.447Z,76448
2017-09-11T09:18:02.469Z,73376
2017-09-11T09:19:02.429Z,75840
2017-09-11T09:20:02.430Z,74016
2017-09-11T09:21:02.740Z,73920
2017-09-11T09:22:02.419Z,72512
2017-09-11T09:23:02.740Z,70432
2017-09-11T09:24:02.700Z,6664
2017-09-11T09:25:02.391Z,19296
2017-09-11T09:26:02.433Z,51552
2017-09-11T09:27:02.699Z,64640
2017-09-11T09:28:02.386Z,2712
2017-09-11T09:29:02.049Z,2580
2017-09-11T09:30:02.358Z,71712
2017-09-11T09:31:02.738Z,68768
2017-09-11T09:32:02.346Z,63008
2017-09-11T09:33:02.353Z,61184
2017-09-11T09:34:02.704Z,60288
2017-09-11T09:35:02.400Z,64448
2017-09-11T09:36:02.295Z,25728
2017-09-11T09:37:02.309Z,6536
2017-09-11T09:38:02.310Z,4144
2017-09-11T09:39:02.571Z,3136
2017-09-11T09:40:02.285Z,4084
2017-09-11T09:41:02.672Z,3852
2017-09-11T09:42:02.560Z,2912
2017-09-11T09:43:02.545Z,2408
2017-09-11T09:44:02.601Z,2348
2017-09-11T09:45:02.564Z,1884
2017-09-11T09:46:02.552Z,1728
2017-09-11T09:47:01.881Z,1628
2017-09-11T09:48:02.502Z,1684
2017-09-11T09:49:02.490Z,1660
2017-09-11T09:50:02.510Z,2404
2017-09-11T09:51:02.136Z,5232
2017-09-11T09:52:02.132Z,13992
2017-09-11T09:53:02.429Z,18016
2017-09-11T09:54:02.116Z,6928
2017-09-11T09:55:02.392Z,56864
2017-09-11T09:56:02.074Z,33120
2017-09-11T09:57:02.400Z,31136
2017-09-11T09:58:02.365Z,60640
2017-09-11T09:59:02.040Z,56896
2017-09-11T10:00:02.360Z,54496
2017-09-11T10:01:02.372Z,55744
2017-09-11T10:02:02.083Z,54272
2017-09-11T10:03:02.324Z,52640
2017-09-11T10:04:02.297Z,53376
2017-09-11T10:05:02.304Z,54208
2017-09-11T10:06:01.983Z,15836
2017-09-11T10:07:01.960Z,12684
2017-09-11T10:08:02.286Z,9932
2017-09-11T10:09:02.263Z,15672
2017-09-11T10:10:02.250Z,11112
2017-09-11T10:11:01.923Z,56352
2017-09-11T10:12:01.922Z,11272
2017-09-11T10:13:02.211Z,10000
2017-09-11T10:14:01.561Z,9552
2017-09-11T10:15:02.174Z,6964
2017-09-11T10:16:01.863Z,5832
2017-09-11T10:17:02.162Z,7012
2017-09-11T10:18:01.828Z,44544
2017-09-11T10:19:01.821Z,12376
2017-09-11T10:20:01.802Z,10116
2017-09-11T10:21:01.495Z,9396
2017-09-11T10:22:01.782Z,8452
2017-09-11T10:23:02.111Z,5828
2017-09-11T10:24:01.750Z,5524
2017-09-11T10:25:01.750Z,4868
2017-09-11T10:26:02.049Z,4116
2017-09-11T10:27:02.040Z,3624
2017-09-11T10:28:01.393Z,3352
2017-09-11T10:29:02.048Z,3376
2017-09-11T10:30:01.981Z,3508
2017-09-11T10:31:01.980Z,4300
2017-09-11T10:32:01.980Z,5604
2017-09-11T10:33:01.958Z,18016
2017-09-11T10:34:01.949Z,15792
2017-09-11T10:35:01.949Z,9736
2017-09-11T10:36:01.599Z,4816
2017-09-11T10:37:01.911Z,21600
2017-09-11T10:38:01.880Z,27104
2017-09-11T10:39:02.020Z,28576
2017-09-11T10:40:01.543Z,13932
2017-09-11T10:41:01.872Z,20000
2017-09-11T10:42:01.535Z,13736
2017-09-11T10:43:01.831Z,11700
2017-09-11T10:44:01.873Z,11668
2017-09-11T10:45:01.899Z,11112
2017-09-11T10:46:01.150Z,11604
2017-09-11T10:47:01.865Z,9956
2017-09-11T10:48:01.129Z,11800
2017-09-11T10:49:01.861Z,10552
2017-09-11T10:50:01.722Z,11736
2017-09-11T10:51:01.096Z,6152
2017-09-11T10:52:01.387Z,11336
2017-09-11T10:53:01.060Z,11420
2017-09-11T10:54:01.061Z,10784
2017-09-11T10:55:01.050Z,12756
2017-09-11T10:56:01.340Z,9908
2017-09-11T10:57:01.320Z,13728
2017-09-11T10:58:01.640Z,11540
2017-09-11T10:59:01.604Z,11116
2017-09-11T11:00:01.599Z,11212
2017-09-11T11:01:01.635Z,6648
2017-09-11T11:02:01.582Z,10208
2017-09-11T11:03:01.561Z,9916
2017-09-11T11:04:01.529Z,9352
2017-09-11T11:05:01.231Z,9276
2017-09-11T11:06:01.202Z,8528
2017-09-11T11:07:01.192Z,6760
2017-09-11T11:08:01.180Z,8548
2017-09-11T11:09:01.160Z,6428
2017-09-11T11:10:01.488Z,7836
2017-09-11T11:11:01.132Z,12208
2017-09-11T11:12:01.434Z,10328
2017-09-11T11:13:01.110Z,11376
2017-09-11T11:14:00.801Z,6592
2017-09-11T11:15:01.418Z,7968
2017-09-11T11:16:01.082Z,5772
2017-09-11T11:17:01.083Z,4624
2017-09-11T11:18:00.740Z,8732
2017-09-11T11:19:01.041Z,10344
2017-09-11T11:20:01.019Z,12360
2017-09-11T11:21:01.336Z,10856
2017-09-11T11:22:01.313Z,5544
2017-09-11T11:23:01.301Z,7744
2017-09-11T11:24:01.279Z,9956
2017-09-11T11:25:00.978Z,8820
2017-09-11T11:26:01.251Z,12092
2017-09-11T11:27:00.934Z,7152
2017-09-11T11:28:01.009Z,7000
2017-09-11T11:29:00.599Z,7888
2017-09-11T11:30:00.897Z,7788
2017-09-11T11:31:01.177Z,12324
2017-09-11T11:32:01.190Z,11740
2017-09-11T11:33:00.585Z,8276
2017-09-11T11:34:00.580Z,11956
2017-09-11T11:35:01.131Z,10864
2017-09-11T11:36:00.496Z,10856
2017-09-11T11:37:00.499Z,10760
2017-09-11T11:38:00.175Z,10900
2017-09-11T11:39:00.776Z,9184
2017-09-11T11:40:00.779Z,4852
2017-09-11T11:41:00.741Z,4316
2017-09-11T11:42:00.441Z,4068
2017-09-11T11:43:00.728Z,4532
2017-09-11T11:44:01.032Z,4668
2017-09-11T11:45:00.507Z,4656
2017-09-11T11:46:01.009Z,5128
2017-09-11T11:47:00.691Z,10120
2017-09-11T11:48:00.667Z,12352
2017-09-11T11:49:00.972Z,10780
2017-09-11T11:50:00.990Z,7328
2017-09-11T11:51:00.370Z,5612
2017-09-11T11:51:59.997Z,5184
2017-09-11T11:53:00.939Z,4596
2017-09-11T11:54:00.890Z,4544
2017-09-11T11:55:00.679Z,4776
2017-09-11T11:56:00.560Z,4880
2017-09-11T11:57:00.871Z,5180
2017-09-11T11:58:00.572Z,5532
2017-09-11T11:59:00.210Z,5824
2017-09-11T12:00:00.822Z,6604
2017-09-11T12:01:00.245Z,12092
2017-09-11T12:02:00.890Z,12504
2017-09-11T12:03:00.866Z,8780
2017-09-11T12:04:00.832Z,7052
2017-09-11T12:05:00.750Z,5964
2017-09-11T12:06:00.425Z,5384
2017-09-11T12:07:00.419Z,5208
2017-09-11T12:08:00.750Z,5484
2017-09-11T12:09:00.741Z,10648
2017-09-11T12:10:00.408Z,5948
2017-09-11T12:11:00.685Z,5956
2017-09-11T12:12:00.340Z,10788
2017-09-11T12:13:00.339Z,4484
2017-09-11T12:14:00.313Z,4984
2017-09-11T12:15:00.310Z,9892
2017-09-11T12:16:00.609Z,8792
2017-09-11T12:17:00.648Z,4904
2017-09-11T12:18:00.262Z,8424
2017-09-11T12:19:00.234Z,9244
2017-09-11T12:20:00.569Z,4544
2017-09-11T12:21:00.218Z,5328
2017-09-11T12:22:00.209Z,8812
2017-09-11T12:23:00.499Z,5052
2017-09-11T12:24:00.510Z,6260
2017-09-11T12:25:00.179Z,10540
2017-09-11T12:26:00.184Z,9176
2017-09-11T12:27:00.149Z,6372
2017-09-11T12:28:00.428Z,9740
2017-09-11T12:29:00.490Z,6492
2017-09-11T12:30:00.120Z,5988
2017-09-11T12:31:00.391Z,5708
2017-09-11T12:32:00.388Z,5060
2017-09-11T12:33:00.074Z,4728
2017-09-11T12:34:00.369Z,4648
2017-09-11T12:35:00.043Z,3872
2017-09-11T12:35:59.720Z,3388
2017-09-11T12:37:00.001Z,2904
2017-09-11T12:38:00.295Z,2800
2017-09-11T12:39:00.299Z,2804
2017-09-11T12:39:59.996Z,3128
2017-09-11T12:41:00.289Z,3756
2017-09-11T12:42:00.256Z,5136
2017-09-11T12:42:59.954Z,7052
2017-09-11T12:43:59.924Z,12064
2017-09-11T12:44:59.915Z,12148
2017-09-11T12:46:00.225Z,10948
2017-09-11T12:47:00.198Z,7052
2017-09-11T12:48:00.182Z,5460
2017-09-11T12:49:00.163Z,8040
2017-09-11T12:50:00.161Z,4684
2017-09-11T12:51:00.140Z,7964
2017-09-11T12:52:00.147Z,4276
2017-09-11T12:52:59.470Z,5324
2017-09-11T12:54:00.112Z,5964
2017-09-11T12:54:59.802Z,6448
2017-09-11T12:55:59.773Z,10336
2017-09-11T12:57:00.049Z,6088
2017-09-11T12:58:00.046Z,7728
2017-09-11T12:59:00.032Z,5760
2017-09-11T12:59:59.719Z,5392
2017-09-11T13:00:59.698Z,5988
2017-09-11T13:02:00.000Z,5116
2017-09-11T13:03:00.002Z,4192
2017-09-11T13:03:59.959Z,4184
2017-09-11T13:05:00.043Z,4216
2017-09-11T13:05:59.943Z,4300
2017-09-11T13:07:00.059Z,4384
2017-09-11T13:07:59.923Z,4152
2017-09-11T13:08:59.912Z,3896
2017-09-11T13:09:59.882Z,3620
2017-09-11T13:10:59.889Z,3288
2017-09-11T13:11:59.882Z,2816
2017-09-11T13:12:59.581Z,2420
2017-09-11T13:13:59.907Z,2180
2017-09-11T13:14:59.956Z,2000
2017-09-11T13:15:59.494Z,1960
2017-09-11T13:16:59.480Z,2060
2017-09-11T13:17:59.464Z,1980
2017-09-11T13:18:59.186Z,1920
2017-09-11T13:19:59.420Z,2372
2017-09-11T13:20:59.411Z,2184
2017-09-11T13:21:59.069Z,1968
2017-09-11T13:22:59.450Z,1660
2017-09-11T13:23:59.679Z,1712
2017-09-11T13:24:59.458Z,2096
2017-09-11T13:25:59.680Z,3356
2017-09-11T13:26:59.321Z,4744
2017-09-11T13:27:59.659Z,4680
2017-09-11T13:28:59.392Z,4264
2017-09-11T13:29:59.274Z,3280
2017-09-11T13:30:59.589Z,2664
2017-09-11T13:31:59.566Z,2220
2017-09-11T13:32:59.604Z,1728
2017-09-11T13:33:59.530Z,1536
2017-09-11T13:34:59.189Z,1544
2017-09-11T13:35:59.555Z,1192
2017-09-11T13:36:59.532Z,932
2017-09-11T13:37:59.173Z,844
2017-09-11T13:38:59.446Z,888
2017-09-11T13:39:59.191Z,840
2017-09-11T13:40:59.122Z,824
2017-09-11T13:41:59.112Z,860
2017-09-11T13:42:59.095Z,1028
2017-09-11T13:43:59.074Z,1392
2017-09-11T13:44:58.792Z,2852
2017-09-11T13:45:59.350Z,7392
2017-09-11T13:46:59.029Z,9072